Time;durP1;ratioP1;P1;durP2;ratioP2;P2;SDS_P1;SDS_P2;PMS_P1;PMS_P2;Temp;Humidity;BMP_temperature;BMP_pressure;BME280_temperature;BME280_humidity;BME280_pressure;Samples;Min_cycle;Max_cycle;Signal;HPM_P1;HPM_P2
2022/02/23 00:01:35;;;;;;;13.30;4.70;;;5.50;99.90;;;;;;5032182;28;20194;-67
2022/02/23 00:04:06;;;;;;;15.33;4.60;;;5.50;99.90;;;;;;5015734;28;20200;-67
2022/02/23 00:06:34;;;;;;;13.67;4.30;;;5.40;99.90;;;;;;5025034;28;20197;-66
2022/02/23 00:09:02;;;;;;;13.90;4.70;;;5.40;99.90;;;;;;5022209;28;20758;-66
2022/02/23 00:11:31;;;;;;;12.33;3.83;;;5.30;99.90;;;;;;5024584;28;20228;-67
2022/02/23 00:13:59;;;;;;;16.87;4.43;;;5.20;99.90;;;;;;5028628;28;20260;-67
2022/02/23 00:16:27;;;;;;;13.43;4.60;;;5.20;99.90;;;;;;5013591;28;20262;-67
2022/02/23 00:18:56;;;;;;;12.57;4.20;;;5.10;99.90;;;;;;5026516;28;20240;-67
2022/02/23 00:21:25;;;;;;;10.53;4.20;;;5.10;99.90;;;;;;5023721;28;20239;-66
2022/02/23 00:23:54;;;;;;;19.10;4.50;;;5.10;99.90;;;;;;5022006;28;20252;-67
2022/02/23 00:26:22;;;;;;;12.90;4.23;;;5.10;99.90;;;;;;5019986;28;20231;-67
2022/02/23 00:28:51;;;;;;;12.13;4.07;;;5.10;99.90;;;;;;5021152;28;20635;-67
2022/02/23 00:31:19;;;;;;;14.53;4.13;;;5.10;99.90;;;;;;5016386;28;20252;-67
2022/02/23 00:33:47;;;;;;;19.43;4.10;;;5.10;99.90;;;;;;5022420;28;20296;-67
2022/02/23 00:36:15;;;;;;;16.27;4.37;;;5.10;99.90;;;;;;5017311;28;20206;-67
2022/02/23 00:38:45;;;;;;;13.47;3.30;;;5.10;99.90;;;;;;5027119;28;20221;-67
2022/02/23 00:41:13;;;;;;;16.73;4.33;;;5.10;99.90;;;;;;5023345;28;20225;-67
2022/02/23 00:43:42;;;;;;;10.87;3.50;;;5.00;99.90;;;;;;5034912;28;20241;-66
2022/02/23 00:46:10;;;;;;;10.00;3.60;;;5.00;99.90;;;;;;5022177;28;20654;-67
2022/02/23 00:48:39;;;;;;;16.53;3.77;;;4.90;99.90;;;;;;5020173;28;20671;-67
2022/02/23 00:51:07;;;;;;;14.30;3.57;;;4.90;99.90;;;;;;5025783;28;20655;-67
2022/02/23 00:53:35;;;;;;;10.87;3.73;;;4.80;99.90;;;;;;5022174;28;20236;-67
2022/02/23 00:56:05;;;;;;;11.10;3.30;;;4.70;99.90;;;;;;5036923;28;20616;-67
2022/02/23 00:58:34;;;;;;;11.03;3.27;;;4.70;99.90;;;;;;5023049;28;20282;-67
2022/02/23 01:01:02;;;;;;;15.50;4.07;;;4.70;99.90;;;;;;5016073;28;20246;-66
2022/02/23 01:03:31;;;;;;;14.47;3.30;;;4.60;99.90;;;;;;5020829;28;20217;-67
2022/02/23 01:06:00;;;;;;;12.17;3.13;;;4.70;99.90;;;;;;5022808;28;20240;-67
2022/02/23 01:08:28;;;;;;;14.07;3.80;;;4.60;99.90;;;;;;5022734;28;20723;-67
2022/02/23 01:10:57;;;;;;;10.30;3.40;;;4.70;99.90;;;;;;5022699;28;20189;-67
2022/02/23 01:13:28;;;;;;;14.70;3.67;;;4.60;99.90;;;;;;5017609;28;20228;-67
2022/02/23 01:15:58;;;;;;;13.17;3.37;;;4.60;99.90;;;;;;5038597;28;20197;-66
2022/02/23 01:18:27;;;;;;;12.23;3.70;;;4.50;99.90;;;;;;5024503;28;20496;-67
2022/02/23 01:20:55;;;;;;;9.33;3.03;;;4.50;99.90;;;;;;5021980;28;20205;-67
2022/02/23 01:23:24;;;;;;;13.47;3.43;;;4.50;99.90;;;;;;5028242;28;20622;-67
2022/02/23 01:25:52;;;;;;;10.57;3.23;;;4.50;99.90;;;;;;5022579;28;20248;-66
2022/02/23 01:28:20;;;;;;;11.67;3.23;;;4.50;99.90;;;;;;5024873;28;20256;-66
2022/02/23 01:30:51;;;;;;;11.43;3.20;;;4.40;99.90;;;;;;5024155;28;20751;-67
2022/02/23 01:33:20;;;;;;;16.17;3.90;;;4.30;99.90;;;;;;5025111;28;20568;-66
2022/02/23 01:35:48;;;;;;;8.37;3.37;;;4.30;99.90;;;;;;5021232;28;20240;-66
2022/02/23 01:38:17;;;;;;;8.97;3.40;;;4.30;99.90;;;;;;5022628;28;20247;-66
2022/02/23 01:40:45;;;;;;;13.40;3.40;;;4.20;99.90;;;;;;5023826;28;20257;-66
2022/02/23 01:43:14;;;;;;;9.30;3.20;;;4.10;99.90;;;;;;5021485;28;20665;-66
2022/02/23 01:45:42;;;;;;;12.70;3.40;;;4.00;99.90;;;;;;5025746;28;20222;-67
2022/02/23 01:48:12;;;;;;;10.77;3.60;;;4.00;99.90;;;;;;5020099;28;20197;-66
2022/02/23 01:50:42;;;;;;;12.10;3.43;;;4.00;99.90;;;;;;5024603;28;20225;-67
2022/02/23 01:53:11;;;;;;;12.03;3.40;;;4.00;99.90;;;;;;5028783;28;20201;-66
2022/02/23 01:55:39;;;;;;;14.63;2.93;;;3.90;99.90;;;;;;5024532;28;20707;-66
2022/02/23 01:58:09;;;;;;;12.80;3.37;;;3.80;99.90;;;;;;5024196;28;20199;-66
2022/02/23 02:00:37;;;;;;;13.67;3.97;;;3.90;99.90;;;;;;5015585;28;20231;-66
2022/02/23 02:03:07;;;;;;;12.27;3.30;;;3.90;99.90;;;;;;5019605;28;20754;-66
2022/02/23 02:05:36;;;;;;;13.97;3.83;;;3.90;99.90;;;;;;5022701;28;20241;-66
2022/02/23 02:08:05;;;;;;;13.77;3.30;;;3.90;99.90;;;;;;5026043;28;20830;-66
2022/02/23 02:10:34;;;;;;;10.40;3.27;;;3.90;99.90;;;;;;5027547;28;20667;-66
2022/02/23 02:13:02;;;;;;;11.03;3.70;;;3.80;99.90;;;;;;5018905;28;20276;-65
2022/02/23 02:15:30;;;;;;;11.43;3.50;;;3.90;99.90;;;;;;5024032;28;20202;-66
2022/02/23 02:17:59;;;;;;;21.23;3.63;;;3.90;99.90;;;;;;5028500;28;20232;-66
2022/02/23 02:20:27;;;;;;;15.13;3.60;;;3.90;99.90;;;;;;5023510;28;20239;-66
2022/02/23 02:22:57;;;;;;;9.83;3.70;;;3.80;99.90;;;;;;5025652;28;20687;-66
2022/02/23 02:25:25;;;;;;;9.80;3.40;;;3.90;99.90;;;;;;5022297;28;20201;-66
2022/02/23 02:27:54;;;;;;;14.83;3.67;;;3.90;99.90;;;;;;5016220;28;20190;-66
2022/02/23 02:30:22;;;;;;;11.80;3.80;;;3.80;99.90;;;;;;5019809;28;20306;-66
2022/02/23 02:32:51;;;;;;;10.27;3.70;;;3.80;99.90;;;;;;5020980;28;20218;-66
2022/02/23 02:35:19;;;;;;;12.43;3.53;;;3.80;99.90;;;;;;5023714;28;20575;-66
2022/02/23 02:37:47;;;;;;;15.50;3.93;;;3.80;99.90;;;;;;5018852;28;20213;-66
2022/02/23 02:40:17;;;;;;;14.30;4.30;;;3.80;99.90;;;;;;5023314;28;20715;-66
2022/02/23 02:42:45;;;;;;;12.27;3.73;;;3.90;99.90;;;;;;5023684;28;20232;-66
2022/02/23 02:45:14;;;;;;;10.80;3.63;;;3.80;99.90;;;;;;5023027;28;20575;-66
2022/02/23 02:47:42;;;;;;;7.80;3.90;;;3.80;99.90;;;;;;5017429;28;20679;-66
2022/02/23 02:50:13;;;;;;;9.77;3.70;;;3.80;99.90;;;;;;5022452;28;20253;-66
2022/02/23 02:52:41;;;;;;;14.80;3.57;;;3.80;99.90;;;;;;5022571;28;20195;-66
2022/02/23 02:55:10;;;;;;;12.13;4.17;;;3.70;99.90;;;;;;5024274;28;20221;-66
2022/02/23 02:57:40;;;;;;;10.73;3.93;;;3.70;99.90;;;;;;5025081;28;20272;-66
2022/02/23 03:00:10;;;;;;;16.63;4.37;;;3.70;99.90;;;;;;5024236;28;20201;-66
2022/02/23 03:02:38;;;;;;;10.77;3.43;;;3.70;99.90;;;;;;5022423;28;20259;-66
2022/02/23 03:05:07;;;;;;;12.13;4.27;;;3.60;99.90;;;;;;5026989;28;20244;-66
2022/02/23 03:07:36;;;;;;;12.00;4.00;;;3.50;99.90;;;;;;5033535;28;20304;-66
2022/02/23 03:10:06;;;;;;;16.80;4.70;;;3.40;99.90;;;;;;5025869;28;20233;-66
2022/02/23 03:12:34;;;;;;;19.30;4.90;;;3.40;99.90;;;;;;5023145;28;20701;-66
2022/02/23 03:15:06;;;;;;;11.50;4.13;;;3.40;99.90;;;;;;5023329;28;20186;-66
2022/02/23 03:17:34;;;;;;;14.27;4.63;;;3.40;99.90;;;;;;5026646;28;20242;-66
2022/02/23 03:20:02;;;;;;;14.03;5.03;;;3.40;99.90;;;;;;5023288;28;20201;-66
2022/02/23 03:22:32;;;;;;;15.13;5.40;;;3.40;99.90;;;;;;5020875;28;20213;-66
2022/02/23 03:25:00;;;;;;;15.80;5.10;;;3.40;99.90;;;;;;5020246;28;20205;-66
2022/02/23 03:27:29;;;;;;;17.73;5.30;;;3.40;99.90;;;;;;5031187;28;20593;-66
2022/02/23 03:29:57;;;;;;;16.93;5.30;;;3.30;99.90;;;;;;5024313;28;20200;-66
2022/02/23 03:32:27;;;;;;;15.47;5.57;;;3.40;99.90;;;;;;5017353;28;20202;-66
2022/02/23 03:34:55;;;;;;;17.53;5.60;;;3.30;99.90;;;;;;5020562;28;20268;-66
2022/02/23 03:37:24;;;;;;;15.60;5.47;;;3.30;99.90;;;;;;5029174;28;20727;-66
2022/02/23 03:39:52;;;;;;;18.67;5.37;;;3.30;99.90;;;;;;5021554;28;20212;-66
2022/02/23 03:42:21;;;;;;;15.57;5.63;;;3.40;99.90;;;;;;5022179;28;20205;-66
2022/02/23 03:44:50;;;;;;;19.33;5.40;;;3.40;99.90;;;;;;5020391;28;20284;-66
2022/02/23 03:47:18;;;;;;;15.33;5.73;;;3.40;99.90;;;;;;5034048;28;20254;-66
2022/02/23 03:49:50;;;;;;;18.33;5.30;;;3.40;99.90;;;;;;5018952;28;20205;-66
2022/02/23 03:52:21;;;;;;;20.10;6.90;;;3.30;99.90;;;;;;5022826;28;20618;-66
2022/02/23 03:54:49;;;;;;;15.20;5.93;;;3.30;99.90;;;;;;5023265;28;20232;-66
2022/02/23 03:57:17;;;;;;;14.30;5.87;;;3.30;99.90;;;;;;5016275;28;20209;-66
2022/02/23 03:59:46;;;;;;;17.33;5.67;;;3.20;99.90;;;;;;5023438;28;20198;-66
2022/02/23 04:02:14;;;;;;;17.30;6.47;;;3.20;99.90;;;;;;5037803;28;20217;-66
2022/02/23 04:04:42;;;;;;;19.00;6.60;;;3.10;99.90;;;;;;5018962;28;20206;-66
2022/02/23 04:07:12;;;;;;;21.60;6.33;;;3.10;99.90;;;;;;5021061;28;20229;-66
2022/02/23 04:09:48;;;;;;;15.97;6.27;;;3.10;99.90;;;;;;5022915;28;20276;-66
2022/02/23 04:12:16;;;;;;;22.43;6.43;;;3.10;99.90;;;;;;5023573;28;20195;-66
2022/02/23 04:14:45;;;;;;;19.33;6.50;;;3.10;99.90;;;;;;5029158;28;20197;-66
2022/02/23 04:17:13;;;;;;;15.07;6.10;;;3.00;99.90;;;;;;5028186;28;20863;-66
2022/02/23 04:19:42;;;;;;;20.10;7.03;;;2.90;99.90;;;;;;5017649;28;20558;-66
2022/02/23 04:22:12;;;;;;;14.00;6.40;;;2.90;99.90;;;;;;5020801;28;20276;-66
2022/02/23 04:24:41;;;;;;;13.67;6.10;;;2.90;99.90;;;;;;5024439;28;20313;-65
2022/02/23 04:27:09;;;;;;;18.17;6.73;;;2.90;99.90;;;;;;5017016;28;20198;-66
2022/02/23 04:29:38;;;;;;;19.73;7.03;;;2.90;99.90;;;;;;5022881;28;20281;-66
2022/02/23 04:32:07;;;;;;;22.13;6.83;;;2.80;99.90;;;;;;5022684;28;20932;-66
2022/02/23 04:34:36;;;;;;;14.27;6.67;;;2.70;99.90;;;;;;5036756;28;20185;-66
2022/02/23 04:37:05;;;;;;;16.67;6.77;;;2.60;99.90;;;;;;5021244;28;20247;-65
2022/02/23 04:39:34;;;;;;;19.23;6.60;;;2.60;99.90;;;;;;5021949;28;20197;-66
2022/02/23 04:42:05;;;;;;;16.10;6.60;;;2.60;99.90;;;;;;5022348;28;20227;-66
2022/02/23 04:44:34;;;;;;;16.37;6.33;;;2.60;99.90;;;;;;5030836;28;20221;-66
2022/02/23 04:47:03;;;;;;;14.23;6.77;;;2.50;99.90;;;;;;5022273;28;20666;-65
2022/02/23 04:49:31;;;;;;;22.70;6.40;;;2.60;99.90;;;;;;5028137;28;20322;-66
2022/02/23 04:52:00;;;;;;;18.60;6.70;;;2.50;99.90;;;;;;5026665;28;20674;-66
2022/02/23 04:54:28;;;;;;;16.40;6.30;;;2.50;99.90;;;;;;5028859;28;20198;-66
2022/02/23 04:56:58;;;;;;;12.93;6.57;;;2.40;99.90;;;;;;5023033;28;20344;-66
2022/02/23 04:59:27;;;;;;;20.00;6.50;;;2.30;99.90;;;;;;5022367;28;20190;-66
2022/02/23 05:01:58;;;;;;;14.60;6.57;;;2.30;99.90;;;;;;5025527;28;20568;-66
2022/02/23 05:04:27;;;;;;;20.30;6.67;;;2.20;99.90;;;;;;5039549;28;20752;-66
2022/02/23 05:06:55;;;;;;;19.13;6.77;;;2.30;99.90;;;;;;5026587;28;20229;-66
2022/02/23 05:09:23;;;;;;;22.30;7.20;;;2.30;99.90;;;;;;5026162;28;20202;-66
2022/02/23 05:11:52;;;;;;;21.73;7.50;;;2.20;99.90;;;;;;5024879;28;20202;-66
2022/02/23 05:14:22;;;;;;;15.80;6.77;;;2.20;99.90;;;;;;5027229;28;20722;-66
2022/02/23 05:16:51;;;;;;;19.73;6.53;;;2.20;99.90;;;;;;5029565;28;20675;-66
2022/02/23 05:19:19;;;;;;;25.63;7.20;;;2.30;99.90;;;;;;5028167;28;20652;-65
2022/02/23 05:21:48;;;;;;;25.70;7.43;;;2.20;99.90;;;;;;5026928;28;20284;-66
2022/02/23 05:24:17;;;;;;;16.47;6.80;;;2.20;99.90;;;;;;5037133;28;20690;-66
2022/02/23 05:26:46;;;;;;;23.53;7.30;;;2.20;99.90;;;;;;5020542;28;20690;-66
2022/02/23 05:29:14;;;;;;;20.03;6.90;;;2.20;99.90;;;;;;5028152;28;20201;-66
2022/02/23 05:31:44;;;;;;;25.97;7.50;;;2.20;99.90;;;;;;5029582;28;20731;-66
2022/02/23 05:34:15;;;;;;;21.80;7.43;;;2.30;99.90;;;;;;5027703;28;20567;-66
2022/02/23 05:36:44;;;;;;;19.93;6.67;;;2.30;99.90;;;;;;5021196;28;20193;-66
2022/02/23 05:39:13;;;;;;;20.73;7.20;;;2.30;99.90;;;;;;5032028;28;20977;-66
2022/02/23 05:41:41;;;;;;;21.40;7.20;;;2.40;99.90;;;;;;5024537;28;20686;-66
2022/02/23 05:44:10;;;;;;;25.50;7.27;;;2.40;99.90;;;;;;5028127;28;20276;-66
2022/02/23 05:46:39;;;;;;;21.57;7.33;;;2.40;99.90;;;;;;5021818;28;20225;-66
2022/02/23 05:49:08;;;;;;;22.40;6.87;;;2.50;99.90;;;;;;5028379;28;20193;-66
2022/02/23 05:51:39;;;;;;;22.70;6.40;;;2.40;99.90;;;;;;5031643;28;20198;-66
2022/02/23 05:54:08;;;;;;;20.80;6.20;;;2.40;99.90;;;;;;5021963;28;20264;-66
2022/02/23 05:56:36;;;;;;;24.13;6.47;;;2.40;99.90;;;;;;5021821;28;20198;-66
2022/02/23 05:59:05;;;;;;;19.47;6.17;;;2.50;99.90;;;;;;5024857;28;20189;-66
2022/02/23 06:01:34;;;;;;;24.93;7.40;;;2.60;99.90;;;;;;5018435;28;20194;-66
2022/02/23 06:04:03;;;;;;;14.27;5.63;;;2.60;99.90;;;;;;5032837;28;20243;-66
2022/02/23 06:06:33;;;;;;;19.47;6.43;;;2.70;99.90;;;;;;5020789;28;20217;-66
2022/02/23 06:09:02;;;;;;;25.60;5.50;;;2.70;99.90;;;;;;5029077;28;20591;-65
2022/02/23 06:11:30;;;;;;;21.13;6.63;;;2.80;99.90;;;;;;5024045;28;20616;-65
2022/02/23 06:13:59;;;;;;;20.07;6.27;;;2.80;99.90;;;;;;5028984;28;20230;-66
2022/02/23 06:16:29;;;;;;;19.23;6.50;;;2.80;99.90;;;;;;5015665;28;20201;-65
2022/02/23 06:18:58;;;;;;;11.03;5.57;;;2.80;99.90;;;;;;5028607;28;20330;-66
2022/02/23 06:21:27;;;;;;;23.40;5.87;;;2.80;99.90;;;;;;5021848;28;20201;-65
2022/02/23 06:23:57;;;;;;;25.97;7.17;;;2.80;99.90;;;;;;5026036;28;20225;-65
2022/02/23 06:26:25;;;;;;;25.27;6.60;;;2.70;99.90;;;;;;5034748;28;20217;-66
2022/02/23 06:28:54;;;;;;;17.73;6.70;;;2.70;99.90;;;;;;5025460;28;20653;-66
2022/02/23 06:31:22;;;;;;;20.03;7.23;;;2.70;99.90;;;;;;5021695;28;20209;-66
2022/02/23 06:33:51;;;;;;;24.70;7.57;;;2.70;99.90;;;;;;5021346;28;20745;-66
2022/02/23 06:36:19;;;;;;;18.90;6.67;;;2.70;99.90;;;;;;5033456;28;20190;-66
2022/02/23 06:38:48;;;;;;;22.27;7.10;;;2.60;99.90;;;;;;5024884;28;20201;-65
2022/02/23 06:41:22;;;;;;;19.80;7.03;;;2.50;99.90;;;;;;5025761;28;20280;-66
2022/02/23 06:43:52;;;;;;;21.70;7.47;;;2.50;99.90;;;;;;5022379;28;20201;-66
2022/02/23 06:46:22;;;;;;;18.93;7.97;;;2.50;99.90;;;;;;5020632;28;20717;-66
2022/02/23 06:48:50;;;;;;;21.67;8.03;;;2.40;99.90;;;;;;5031818;28;20695;-66
2022/02/23 06:51:19;;;;;;;20.27;8.37;;;2.40;99.90;;;;;;5022953;28;20720;-65
2022/02/23 06:53:49;;;;;;;28.23;8.60;;;2.40;99.90;;;;;;5021307;28;20201;-65
2022/02/23 06:56:19;;;;;;;24.07;8.90;;;2.40;99.90;;;;;;5015305;28;20197;-65
2022/02/23 06:58:49;;;;;;;27.30;8.70;;;2.50;99.90;;;;;;5022529;28;20194;-65
2022/02/23 07:01:20;;;;;;;24.33;9.23;;;2.40;99.90;;;;;;5021874;28;20197;-66
2022/02/23 07:03:49;;;;;;;24.87;9.67;;;2.50;99.90;;;;;;5019090;28;20577;-66
2022/02/23 07:06:18;;;;;;;21.53;9.20;;;2.50;99.90;;;;;;5003469;28;20217;-66
2022/02/23 07:08:48;;;;;;;21.10;9.50;;;2.40;99.90;;;;;;5020090;28;20238;-65
2022/02/23 07:11:19;;;;;;;27.97;9.60;;;2.40;99.90;;;;;;5014955;28;20186;-65
2022/02/23 07:13:47;;;;;;;37.50;11.07;;;2.50;99.90;;;;;;5022763;28;20285;-65
2022/02/23 07:16:16;;;;;;;32.17;11.17;;;2.60;99.90;;;;;;5024632;28;20225;-65
2022/02/23 07:18:45;;;;;;;29.40;11.03;;;2.60;99.90;;;;;;5032136;28;20203;-66
2022/02/23 07:21:13;;;;;;;34.70;11.47;;;2.70;99.90;;;;;;5024081;28;20316;-66
2022/02/23 07:23:42;;;;;;;36.80;10.80;;;2.80;99.90;;;;;;5018375;28;20203;-66
2022/02/23 07:26:11;;;;;;;28.67;10.77;;;2.80;99.90;;;;;;5022632;28;20202;-66
2022/02/23 07:28:42;;;;;;;31.10;11.23;;;2.80;99.90;;;;;;5024857;28;20220;-65
2022/02/23 07:31:13;;;;;;;37.13;10.93;;;2.90;99.90;;;;;;5037134;28;20205;-66
2022/02/23 07:33:42;;;;;;;33.40;12.20;;;3.00;99.90;;;;;;5010920;28;20212;-66
2022/02/23 07:36:11;;;;;;;25.70;10.33;;;3.20;99.90;;;;;;5028595;28;20194;-65
2022/02/23 07:38:42;;;;;;;24.10;11.33;;;3.50;99.90;;;;;;5014579;28;20209;-65
2022/02/23 07:41:13;;;;;;;32.30;11.43;;;3.80;99.90;;;;;;5043341;28;20289;-65
2022/02/23 07:44:04;;;;;;;28.20;10.60;;;4.00;99.90;;;;;;5022968;28;20201;-65
2022/02/23 07:46:32;;;;;;;25.17;10.17;;;4.40;99.90;;;;;;5017981;28;20228;-65
2022/02/23 07:49:01;;;;;;;21.37;8.20;;;4.70;99.90;;;;;;5027783;28;20292;-65
2022/02/23 07:51:30;;;;;;;27.33;8.23;;;5.00;99.90;;;;;;5014077;28;20496;-65
2022/02/23 07:53:59;;;;;;;21.03;7.60;;;5.30;99.90;;;;;;5022433;28;20252;-66
2022/02/23 07:56:28;;;;;;;20.10;7.00;;;5.60;99.90;;;;;;5021305;28;20296;-65
2022/02/23 07:58:56;;;;;;;18.47;7.37;;;5.90;99.90;;;;;;5021194;28;20202;-65
2022/02/23 08:01:30;;;;;;;22.87;6.57;;;6.20;99.90;;;;;;5018475;28;20201;-66
2022/02/23 08:03:59;;;;;;;18.13;6.97;;;6.60;99.90;;;;;;5025557;28;20233;-65
2022/02/23 08:06:28;;;;;;;18.53;6.77;;;7.00;99.90;;;;;;5022497;28;20301;-66
2022/02/23 08:08:56;;;;;;;18.33;6.27;;;7.30;99.90;;;;;;5022084;28;20300;-65
2022/02/23 08:11:26;;;;;;;18.23;6.30;;;7.50;99.90;;;;;;5005343;28;20229;-66
2022/02/23 08:13:58;;;;;;;19.30;6.00;;;7.70;99.90;;;;;;5024443;28;20199;-66
2022/02/23 08:19:35;;;;;;;19.27;6.00;;;8.20;99.90;;;;;;5023236;28;20197;-66
2022/02/23 08:22:07;;;;;;;18.63;6.20;;;8.30;99.90;;;;;;5027630;28;20221;-66
2022/02/23 08:24:39;;;;;;;19.03;6.70;;;8.60;99.90;;;;;;5035300;28;20670;-66
2022/02/23 08:27:10;;;;;;;20.27;5.97;;;8.70;99.90;;;;;;5031503;28;20209;-66
2022/02/23 08:29:40;;;;;;;17.03;6.37;;;8.90;99.90;;;;;;5021630;28;20200;-66
2022/02/23 08:32:12;;;;;;;12.47;5.00;;;9.00;99.90;;;;;;5027232;28;20198;-66
2022/02/23 08:34:42;;;;;;;14.20;4.93;;;9.20;99.90;;;;;;5025945;28;20659;-66
2022/02/23 08:37:12;;;;;;;15.30;4.70;;;9.30;99.90;;;;;;5032563;28;20276;-66
2022/02/23 08:39:41;;;;;;;16.70;5.33;;;9.50;99.90;;;;;;5024808;28;20734;-66
2022/02/23 08:42:12;;;;;;;13.13;5.03;;;9.50;99.90;;;;;;5026022;28;20194;-66
2022/02/23 08:44:41;;;;;;;14.97;4.73;;;9.60;99.90;;;;;;5033567;28;20227;-66
2022/02/23 08:47:12;;;;;;;12.67;5.07;;;9.60;99.90;;;;;;5022715;28;20221;-66
2022/02/23 08:49:41;;;;;;;14.30;4.90;;;9.60;99.90;;;;;;5029144;28;20201;-66
2022/02/23 08:52:10;;;;;;;11.37;4.77;;;9.50;99.90;;;;;;5041142;28;20252;-66
2022/02/23 08:54:38;;;;;;;17.30;4.83;;;9.70;99.90;;;;;;5030237;28;20243;-66
2022/02/23 08:57:08;;;;;;;13.70;4.93;;;10.00;99.90;;;;;;5024862;28;20288;-66
2022/02/23 08:59:36;;;;;;;16.63;5.40;;;10.10;99.90;;;;;;5030129;28;20236;-66
2022/02/23 09:02:06;;;;;;;12.73;5.00;;;10.20;99.90;;;;;;5022103;28;20737;-66
2022/02/23 09:04:36;;;;;;;15.93;5.20;;;10.10;99.90;;;;;;5035663;28;20201;-66
2022/02/23 09:07:04;;;;;;;15.83;5.20;;;10.30;99.90;;;;;;5029055;28;20240;-66
2022/02/23 09:09:33;;;;;;;13.87;4.40;;;10.50;99.90;;;;;;5022402;28;20201;-66
2022/02/23 09:12:03;;;;;;;16.03;4.77;;;10.60;99.90;;;;;;5025988;28;20794;-66
2022/02/23 09:14:32;;;;;;;15.50;4.73;;;10.70;99.90;;;;;;5020657;28;20208;-66
2022/02/23 09:17:04;;;;;;;12.97;4.90;;;10.70;99.90;;;;;;5024009;28;20201;-66
2022/02/23 09:19:34;;;;;;;13.50;4.40;;;10.80;99.90;;;;;;5026470;28;20274;-66
2022/02/23 09:22:03;;;;;;;13.93;4.80;;;10.70;99.90;;;;;;5024500;28;20197;-66
2022/02/23 09:24:31;;;;;;;11.63;4.33;;;10.90;99.90;;;;;;5027413;28;20209;-66
2022/02/23 09:27:02;;;;;;;14.70;4.47;;;11.00;99.90;;;;;;5029943;28;20227;-66
2022/02/23 09:29:34;;;;;;;13.43;4.17;;;11.20;99.90;;;;;;5020481;28;20194;-67
2022/02/23 09:32:02;;;;;;;12.83;4.53;;;11.40;99.90;;;;;;5028216;28;20194;-67
2022/02/23 09:34:31;;;;;;;11.50;4.37;;;11.90;99.90;;;;;;5015395;28;20283;-66
2022/02/23 09:37:01;;;;;;;7.77;3.93;;;12.00;99.90;;;;;;5021000;28;20298;-67
2022/02/23 09:39:30;;;;;;;12.53;4.57;;;12.10;99.90;;;;;;5024693;28;20201;-67
2022/02/23 09:42:00;;;;;;;17.57;4.83;;;12.50;99.90;;;;;;5019225;28;20308;-67
2022/02/23 09:44:30;;;;;;;11.73;4.17;;;12.30;99.90;;;;;;5021168;28;20197;-67
2022/02/23 09:47:01;;;;;;;13.37;4.67;;;12.50;99.90;;;;;;5018873;28;20209;-67
2022/02/23 09:49:31;;;;;;;17.40;4.73;;;12.60;99.90;;;;;;5020971;28;21566;-67
2022/02/23 09:52:01;;;;;;;11.60;4.30;;;12.20;99.90;;;;;;5028137;28;20209;-67
2022/02/23 09:54:29;;;;;;;15.87;4.60;;;12.20;99.90;;;;;;5021057;28;20775;-67
2022/02/23 09:56:58;;;;;;;12.43;4.40;;;12.10;99.90;;;;;;5020207;28;20264;-67
2022/02/23 09:59:27;;;;;;;12.43;3.90;;;12.40;99.90;;;;;;5022150;28;20202;-67
2022/02/23 10:01:59;;;;;;;14.13;4.47;;;12.40;99.90;;;;;;5023829;28;20255;-67
2022/02/23 10:04:27;;;;;;;13.53;4.47;;;12.40;99.90;;;;;;5017531;28;20194;-67
2022/02/23 10:07:04;;;;;;;13.93;4.40;;;12.50;99.90;;;;;;5022310;28;20229;-67
2022/02/23 10:09:41;;;;;;;11.67;4.10;;;12.80;99.90;;;;;;5021869;28;20198;-67
2022/02/23 10:12:16;;;;;;;13.53;4.23;;;12.90;99.90;;;;;;5029513;28;20209;-67
2022/02/23 10:14:45;;;;;;;12.17;4.40;;;13.10;99.90;;;;;;5021570;28;20283;-67
2022/02/23 10:17:15;;;;;;;15.93;4.13;;;13.30;99.90;;;;;;5029628;28;20207;-68
2022/02/23 10:19:50;;;;;;;13.73;4.10;;;13.60;99.90;;;;;;5035596;28;20220;-67
2022/02/23 10:22:23;;;;;;;16.43;4.33;;;13.60;99.90;;;;;;5024833;28;20205;-68
2022/02/23 10:24:58;;;;;;;10.87;3.80;;;13.70;99.90;;;;;;5019514;28;20201;-68
2022/02/23 10:27:34;;;;;;;10.00;3.67;;;13.80;99.90;;;;;;5018913;28;20324;-68
2022/02/23 10:30:02;;;;;;;9.83;3.90;;;13.80;99.90;;;;;;5018805;28;20560;-67
2022/02/23 10:32:31;;;;;;;11.53;4.00;;;13.80;99.90;;;;;;5020336;28;21057;-68
2022/02/23 10:35:01;;;;;;;15.47;4.40;;;14.00;99.90;;;;;;5031842;28;20208;-68
2022/02/23 10:37:31;;;;;;;14.40;3.93;;;14.30;99.90;;;;;;5022648;28;20207;-67
2022/02/23 10:40:01;;;;;;;10.37;3.60;;;14.60;99.90;;;;;;5026782;28;20204;-67
2022/02/23 10:42:32;;;;;;;14.73;4.07;;;14.80;99.90;;;;;;5032724;28;20204;-68
2022/02/23 10:45:01;;;;;;;15.40;4.23;;;15.20;99.90;;;;;;5020572;28;20236;-68
2022/02/23 10:47:33;;;;;;;13.83;3.90;;;15.20;99.90;;;;;;5021391;28;20193;-68
2022/02/23 10:50:04;;;;;;;12.70;4.10;;;15.20;99.90;;;;;;5014466;28;20248;-67
2022/02/23 10:52:36;;;;;;;9.83;3.80;;;15.40;99.90;;;;;;5024139;28;20887;-68
2022/02/23 10:55:15;;;;;;;9.53;3.57;;;15.40;99.90;;;;;;5026465;28;20748;-68
2022/02/23 10:57:45;;;;;;;10.13;3.83;;;15.50;99.90;;;;;;5022339;28;20199;-68
2022/02/23 11:00:16;;;;;;;13.03;4.30;;;15.00;99.90;;;;;;5022584;28;20336;-68
2022/02/23 11:03:07;;;;;;;12.97;3.93;;;14.90;99.90;;;;;;5018578;28;20272;-67
2022/02/23 11:05:36;;;;;;;12.73;3.60;;;15.00;99.90;;;;;;5032829;28;20591;-67
2022/02/23 11:08:11;;;;;;;13.17;3.70;;;;;;;;;;5028700;28;20234;-68
2022/02/23 11:10:43;;;;;;;16.13;3.67;;;14.90;99.90;;;;;;5019541;28;20211;-68
2022/02/23 11:13:15;;;;;;;10.27;3.73;;;14.90;99.90;;;;;;5020781;28;20262;-68
2022/02/23 11:15:46;;;;;;;17.73;3.90;;;14.70;99.90;;;;;;5021062;28;20216;-68
2022/02/23 11:18:16;;;;;;;15.37;3.67;;;14.70;99.90;;;;;;5033018;28;20243;-67
2022/02/23 11:20:54;;;;;;;15.10;4.40;;;14.90;99.90;;;;;;5024064;28;20233;-68
2022/02/23 11:23:24;;;;;;;13.07;3.50;;;15.30;99.90;;;;;;5046258;28;20193;-68
2022/02/23 11:25:55;;;;;;;12.47;3.70;;;15.60;99.90;;;;;;5032649;28;20200;-68
2022/02/23 11:28:26;;;;;;;10.97;3.23;;;15.90;99.90;;;;;;5027060;28;20213;-67
2022/02/23 11:30:57;;;;;;;14.07;3.67;;;16.00;99.90;;;;;;5024939;28;20623;-68
2022/02/23 11:34:07;;;;;;;13.27;3.23;;;15.80;99.90;;;;;;5034643;28;20186;-68
2022/02/23 11:36:39;;;;;;;10.50;2.90;;;15.80;99.90;;;;;;5016090;28;20269;-68
2022/02/23 11:39:13;;;;;;;13.23;3.30;;;15.40;99.90;;;;;;5018010;28;20197;-68
2022/02/23 11:41:46;;;;;;;11.27;3.43;;;15.30;99.90;;;;;;5022526;28;20656;-68
2022/02/23 11:44:16;;;;;;;14.73;3.33;;;15.30;99.90;;;;;;5033974;28;20204;-69
2022/02/23 11:47:01;;;;;;;9.23;3.30;;;15.70;99.90;;;;;;5028906;28;20186;-69
2022/02/23 11:49:34;;;;;;;8.53;3.10;;;15.90;99.90;;;;;;5021062;28;20563;-68
2022/02/23 11:52:08;;;;;;;8.87;2.80;;;15.90;99.90;;;;;;5020689;28;20264;-68
2022/02/23 11:54:56;;;;;;;11.63;2.97;;;16.00;99.90;;;;;;5020021;28;20251;-69
2022/02/23 11:57:48;;;;;;;9.00;3.20;;;16.00;99.90;;;;;;5023767;28;20189;-69
2022/02/23 12:00:21;;;;;;;8.47;2.93;;;15.70;99.90;;;;;;5022543;28;20206;-68
2022/02/23 12:03:00;;;;;;;8.07;2.73;;;15.70;99.90;;;;;;5025014;28;20190;-69
2022/02/23 12:05:40;;;;;;;8.97;2.97;;;15.60;99.90;;;;;;5017058;28;20236;-68
2022/02/23 12:08:40;;;;;;;5.60;2.43;;;15.40;99.90;;;;;;5042041;28;20235;-69
2022/02/23 12:11:41;;;;;;;5.20;2.30;;;15.20;99.90;;;;;;5016151;28;20861;-69
2022/02/23 12:14:13;;;;;;;7.50;2.33;;;14.80;99.90;;;;;;5032641;28;20209;-69
2022/02/23 12:16:48;;;;;;;6.13;2.40;;;14.80;99.90;;;;;;5015221;28;20575;-69
2022/02/23 12:19:18;;;;;;;5.73;2.57;;;14.70;99.90;;;;;;5022821;28;20228;-69
2022/02/23 12:21:48;;;;;;;8.13;2.40;;;14.80;99.90;;;;;;5024310;28;20610;-69
2022/02/23 12:24:19;;;;;;;8.80;2.50;;;15.10;99.90;;;;;;5037790;28;20210;-68
2022/02/23 12:26:53;;;;;;;7.50;2.40;;;14.80;99.90;;;;;;5018072;28;20687;-69
2022/02/23 12:29:26;;;;;;;5.57;2.17;;;14.60;99.90;;;;;;5031403;28;20315;-69
2022/02/23 12:32:05;;;;;;;8.10;2.37;;;14.70;99.90;;;;;;5020281;28;20586;-69
2022/02/23 12:34:36;;;;;;;6.53;2.20;;;14.80;99.90;;;;;;5030706;28;20211;-68
2022/02/23 12:37:27;;;;;;;8.90;2.57;;;14.80;99.90;;;;;;5028525;28;20656;-69
2022/02/23 12:39:57;;;;;;;5.57;1.90;;;14.50;99.90;;;;;;5030667;28;20892;-69
2022/02/23 12:42:28;;;;;;;4.03;2.30;;;14.30;99.90;;;;;;5014771;28;20726;-69
2022/02/23 12:45:00;;;;;;;11.83;2.60;;;14.10;99.90;;;;;;5020049;28;20210;-69
2022/02/23 12:47:56;;;;;;;7.50;2.07;;;14.30;99.90;;;;;;5026085;28;20719;-69
2022/02/23 12:50:27;;;;;;;5.90;2.43;;;14.60;99.90;;;;;;5020635;28;20308;-69
2022/02/23 12:52:55;;;;;;;3.33;1.90;;;14.80;99.90;;;;;;5034462;28;20717;-69
2022/02/23 12:55:24;;;;;;;5.47;2.40;;;14.50;99.90;;;;;;5017206;28;20661;-69
2022/02/23 12:57:54;;;;;;;5.83;2.00;;;14.30;99.90;;;;;;5028688;28;20537;-69
2022/02/23 13:00:23;;;;;;;5.37;2.13;;;14.30;99.90;;;;;;5017300;28;20201;-68
2022/02/23 13:02:52;;;;;;;3.87;1.87;;;14.10;99.90;;;;;;5031652;28;20659;-69
2022/02/23 13:05:21;;;;;;;4.17;1.90;;;14.10;99.90;;;;;;5024590;28;20193;-69